createdAt,value
2023-01-17T00:05:17.974Z,8.80
2023-01-17T00:10:26.358Z,7.97
2023-01-17T00:15:31.073Z,11.03
2023-01-17T00:20:52.464Z,10.77
2023-01-17T00:26:04.146Z,9.20
2023-01-17T00:31:08.411Z,14.90
2023-01-17T00:36:12.141Z,13.00
2023-01-17T00:41:15.688Z,10.57
2023-01-17T00:46:37.111Z,14.30
2023-01-17T00:51:58.459Z,10.23
2023-01-17T00:57:19.854Z,11.70
2023-01-17T01:02:42.015Z,9.67
2023-01-17T01:08:03.198Z,12.67
2023-01-17T01:13:24.038Z,8.23
2023-01-17T01:18:45.214Z,8.20
2023-01-17T01:24:06.050Z,9.93
2023-01-17T01:29:27.308Z,10.37
2023-01-17T01:34:29.820Z,10.07
2023-01-17T01:39:32.376Z,9.43
2023-01-17T01:44:49.436Z,9.90
2023-01-17T01:49:51.907Z,9.97
2023-01-17T01:55:13.175Z,11.30
2023-01-17T02:00:25.015Z,13.17
2023-01-17T02:05:29.798Z,7.73
2023-01-17T02:10:37.074Z,14.33
2023-01-17T02:15:49.101Z,10.93
2023-01-17T02:21:23.569Z,13.97
2023-01-17T02:26:56.121Z,15.30
2023-01-17T02:32:06.623Z,12.30
2023-01-17T02:37:23.305Z,15.63
2023-01-17T02:42:30.502Z,16.03
2023-01-17T02:47:33.165Z,9.33
2023-01-17T02:52:38.787Z,16.30
2023-01-17T02:57:49.804Z,15.53
2023-01-17T03:02:58.542Z,17.50
2023-01-17T03:08:02.174Z,15.70
2023-01-17T03:13:04.836Z,15.93
2023-01-17T03:18:12.695Z,19.30
2023-01-17T03:23:15.143Z,16.73
2023-01-17T03:28:17.813Z,18.73
2023-01-17T03:33:20.283Z,18.53
2023-01-17T03:38:22.859Z,18.67
2023-01-17T03:43:25.520Z,17.47
2023-01-17T03:48:28.056Z,17.77
2023-01-17T03:53:30.571Z,16.77
2023-01-17T03:58:33.233Z,20.60
2023-01-17T04:03:35.813Z,18.30
2023-01-17T04:08:38.352Z,17.50
2023-01-17T04:13:40.789Z,18.70
2023-01-17T04:18:44.692Z,21.00
2023-01-17T04:23:47.808Z,18.43
2023-01-17T04:28:50.368Z,18.23
2023-01-17T04:33:52.947Z,18.27
2023-01-17T04:38:55.398Z,19.43
2023-01-17T04:43:57.916Z,17.73
2023-01-17T04:49:00.566Z,18.67
2023-01-17T04:54:03.097Z,17.17
2023-01-17T04:59:05.673Z,15.53
2023-01-17T05:04:08.316Z,17.83
2023-01-17T05:09:11.107Z,13.23
2023-01-17T05:14:13.645Z,17.27
2023-01-17T05:19:16.091Z,16.50
2023-01-17T05:24:18.940Z,17.93
2023-01-17T05:29:22.139Z,18.63
2023-01-17T05:34:24.844Z,16.70
2023-01-17T05:39:27.517Z,17.87
2023-01-17T05:44:30.062Z,18.60
2023-01-17T05:49:32.559Z,16.40
2023-01-17T05:54:35.099Z,15.73
2023-01-17T05:59:37.766Z,14.50
2023-01-17T06:04:40.348Z,13.47
2023-01-17T06:09:42.891Z,13.60
2023-01-17T06:14:45.469Z,12.33
2023-01-17T06:19:51.076Z,11.90
2023-01-17T06:24:53.571Z,12.40
2023-01-17T06:29:56.122Z,11.83
2023-01-17T06:34:58.620Z,13.23
2023-01-17T06:40:01.424Z,12.77
2023-01-17T06:45:04.353Z,12.33
2023-01-17T06:50:09.014Z,10.00
2023-01-17T06:55:11.664Z,10.70
2023-01-17T07:00:14.958Z,10.10
2023-01-17T07:05:17.690Z,10.67
2023-01-17T07:10:20.834Z,11.20
2023-01-17T07:15:23.371Z,11.33
2023-01-17T07:20:25.992Z,12.07
2023-01-17T07:25:28.439Z,10.33
2023-01-17T07:30:31.052Z,9.70
2023-01-17T07:35:33.718Z,9.33
2023-01-17T07:40:41.716Z,7.43
2023-01-17T07:45:51.840Z,9.27
2023-01-17T07:50:55.941Z,9.87
2023-01-17T07:56:07.466Z,9.07
2023-01-17T08:01:12.940Z,10.80
2023-01-17T08:06:22.610Z,8.97
2023-01-17T08:11:25.614Z,9.20
2023-01-17T08:16:29.737Z,7.40
2023-01-17T08:21:32.614Z,8.00
2023-01-17T08:26:35.239Z,10.80
2023-01-17T08:31:37.808Z,9.13
2023-01-17T08:36:42.966Z,10.40
2023-01-17T08:41:45.536Z,11.27
2023-01-17T08:46:48.078Z,7.20
2023-01-17T08:51:52.721Z,6.13
2023-01-17T08:56:55.790Z,5.33
2023-01-17T09:01:58.917Z,6.07
2023-01-17T09:07:02.722Z,7.70
2023-01-17T09:12:05.495Z,7.83
2023-01-17T09:17:08.010Z,6.23
2023-01-17T09:22:14.074Z,6.33
2023-01-17T09:27:16.756Z,5.30
2023-01-17T09:32:19.202Z,6.00
2023-01-17T09:37:21.744Z,4.90
2023-01-17T09:42:39.381Z,5.60
2023-01-17T09:47:45.280Z,7.17
2023-01-17T09:52:48.655Z,6.43
2023-01-17T09:58:02.445Z,6.90
2023-01-17T10:03:37.671Z,4.50
2023-01-17T10:09:21.639Z,5.50
2023-01-17T10:14:42.696Z,5.10
2023-01-17T10:19:51.219Z,4.70
2023-01-17T10:25:21.518Z,5.47
2023-01-17T10:30:34.528Z,7.07
2023-01-17T10:35:42.099Z,5.10
2023-01-17T10:40:54.972Z,3.77
2023-01-17T10:45:58.026Z,4.53
2023-01-17T10:51:24.991Z,5.23
2023-01-17T10:56:29.966Z,5.40
2023-01-17T11:01:33.120Z,4.87
2023-01-17T11:06:53.191Z,3.93
2023-01-17T11:12:00.597Z,5.27
2023-01-17T11:17:06.023Z,4.10
2023-01-17T11:22:15.239Z,4.70
2023-01-17T11:27:26.565Z,2.80
2023-01-17T11:32:32.454Z,5.93
2023-01-17T11:37:36.153Z,5.10
2023-01-17T11:42:39.040Z,4.70
2023-01-17T11:47:41.545Z,4.67
2023-01-17T11:52:44.553Z,5.60
2023-01-17T11:57:50.837Z,5.30
2023-01-17T12:03:15.304Z,3.47
2023-01-17T12:08:26.819Z,4.30
2023-01-17T12:14:00.517Z,3.83
2023-01-17T12:19:34.112Z,3.40
2023-01-17T12:24:39.527Z,3.10
2023-01-17T12:30:00.702Z,4.33
2023-01-17T12:35:16.968Z,3.80
2023-01-17T12:40:25.064Z,3.70
2023-01-17T12:45:54.878Z,3.60
2023-01-17T12:51:04.163Z,3.07
2023-01-17T12:56:15.570Z,3.10
2023-01-17T13:01:32.198Z,3.87
2023-01-17T13:06:40.502Z,3.27
2023-01-17T13:11:55.363Z,4.20
2023-01-17T13:16:58.910Z,4.13
2023-01-17T13:22:06.602Z,5.20
2023-01-17T13:27:56.814Z,3.13
2023-01-17T13:33:27.382Z,3.37
2023-01-17T13:38:32.474Z,3.10
2023-01-17T13:43:39.440Z,2.80
2023-01-17T13:48:41.869Z,2.70
2023-01-17T13:53:44.446Z,2.00
2023-01-17T13:58:51.866Z,2.77
2023-01-17T14:03:54.713Z,3.00
2023-01-17T14:09:16.929Z,3.20
2023-01-17T14:14:41.078Z,3.27
2023-01-17T14:19:48.661Z,3.57
2023-01-17T14:25:10.054Z,4.07
2023-01-17T14:30:33.774Z,5.43
2023-01-17T14:35:52.560Z,11.90
2023-01-17T14:40:58.586Z,10.83
2023-01-17T14:46:04.392Z,7.77
2023-01-17T14:51:14.000Z,8.23
2023-01-17T14:56:18.390Z,6.57
2023-01-17T15:01:21.829Z,4.63
2023-01-17T15:06:31.752Z,6.57
2023-01-17T15:11:36.075Z,5.73
2023-01-17T15:16:38.933Z,7.03
2023-01-17T15:21:44.364Z,5.73
2023-01-17T15:26:47.598Z,4.90
2023-01-17T15:31:59.032Z,5.27
2023-01-17T15:37:23.059Z,6.10
2023-01-17T15:42:31.354Z,6.90
2023-01-17T15:47:38.591Z,8.67
2023-01-17T15:52:52.706Z,9.57
2023-01-17T15:57:55.786Z,12.27
2023-01-17T16:02:59.477Z,12.20
2023-01-17T16:08:02.332Z,10.30
2023-01-17T16:13:10.002Z,12.13
2023-01-17T16:18:23.960Z,13.20
2023-01-17T16:23:27.663Z,17.60
2023-01-17T16:28:30.117Z,21.07
2023-01-17T16:33:32.635Z,17.00
2023-01-17T16:38:35.292Z,14.83
2023-01-17T16:43:37.832Z,14.83
2023-01-17T16:48:40.363Z,11.63
2023-01-17T16:53:42.935Z,18.17
2023-01-17T16:58:45.495Z,19.20
2023-01-17T17:03:48.186Z,16.40
2023-01-17T17:08:50.844Z,14.93
2023-01-17T17:13:54.642Z,14.00
2023-01-17T17:19:00.090Z,14.47
2023-01-17T17:24:03.018Z,15.17
2023-01-17T17:29:10.773Z,16.57
2023-01-17T17:34:15.064Z,23.63
2023-01-17T17:39:17.644Z,22.00
2023-01-17T17:44:20.184Z,25.27
2023-01-17T17:49:22.792Z,24.57
2023-01-17T17:54:27.575Z,27.23
2023-01-17T17:59:31.192Z,28.00
2023-01-17T18:04:33.839Z,28.30
2023-01-17T18:09:36.552Z,27.87
2023-01-17T18:14:40.411Z,30.67
2023-01-17T18:19:46.155Z,30.90
2023-01-17T18:24:48.727Z,32.43
2023-01-17T18:29:51.571Z,37.30
2023-01-17T18:34:54.565Z,36.07
2023-01-17T18:39:57.713Z,41.20
2023-01-17T18:45:00.675Z,38.23
2023-01-17T18:50:03.581Z,33.87
2023-01-17T18:55:06.414Z,45.83
2023-01-17T19:00:09.864Z,46.63
2023-01-17T19:05:14.869Z,38.10
2023-01-17T19:10:19.980Z,29.27
2023-01-17T19:15:22.853Z,26.97
2023-01-17T19:20:25.635Z,28.30
2023-01-17T19:25:28.235Z,26.33
2023-01-17T19:30:30.774Z,28.30
2023-01-17T19:35:33.611Z,27.93
2023-01-17T19:40:36.191Z,32.30
2023-01-17T19:45:39.029Z,35.07
2023-01-17T19:50:41.686Z,44.70
2023-01-17T19:55:44.438Z,47.33
2023-01-17T20:00:47.335Z,51.17
2023-01-17T20:05:57.286Z,48.53
2023-01-17T20:11:08.570Z,43.80
2023-01-17T20:16:14.173Z,40.60
2023-01-17T20:21:25.644Z,31.20
2023-01-17T20:26:35.236Z,34.93
2023-01-17T20:31:39.851Z,30.77
2023-01-17T20:36:43.009Z,28.93
2023-01-17T20:41:49.908Z,29.20
2023-01-17T20:46:52.736Z,26.43
2023-01-17T20:51:55.808Z,26.20
2023-01-17T20:56:58.733Z,30.43
2023-01-17T21:02:01.755Z,28.60
2023-01-17T21:07:04.782Z,32.13
2023-01-17T21:12:07.290Z,30.80
2023-01-17T21:17:09.937Z,29.37
2023-01-17T21:22:16.710Z,35.07
2023-01-17T21:27:19.320Z,31.60
2023-01-17T21:32:21.812Z,33.70
2023-01-17T21:37:24.745Z,33.30
2023-01-17T21:42:27.332Z,33.10
2023-01-17T21:47:29.795Z,31.10
2023-01-17T21:52:32.410Z,32.40
2023-01-17T21:57:53.389Z,29.30
2023-01-17T22:02:58.102Z,27.30
2023-01-17T22:08:15.356Z,26.63
2023-01-17T22:13:18.983Z,26.63
2023-01-17T22:18:21.473Z,23.43
2023-01-17T22:23:24.001Z,31.77
2023-01-17T22:28:26.513Z,25.93
2023-01-17T22:33:29.055Z,24.07
2023-01-17T22:38:32.502Z,24.23
2023-01-17T22:43:42.947Z,25.17
2023-01-17T22:48:45.715Z,24.10
2023-01-17T22:53:54.623Z,24.57
2023-01-17T22:58:58.835Z,27.37
2023-01-17T23:04:04.948Z,26.00
2023-01-17T23:09:13.389Z,26.33
2023-01-17T23:14:21.870Z,28.10
2023-01-17T23:19:26.350Z,27.07
2023-01-17T23:24:28.811Z,29.63
2023-01-17T23:29:31.286Z,28.63
2023-01-17T23:34:33.776Z,25.73
2023-01-17T23:39:36.370Z,28.23
2023-01-17T23:44:38.876Z,31.30
2023-01-17T23:49:43.436Z,27.83
2023-01-17T23:54:45.893Z,30.13
2023-01-17T23:59:48.397Z,28.87
